Time;durP1;ratioP1;P1;durP2;ratioP2;P2;SDS_P1;SDS_P2;PMS_P1;PMS_P2;Temp;Humidity;BMP_temperature;BMP_pressure;BME280_temperature;BME280_humidity;BME280_pressure;Samples;Min_cycle;Max_cycle;Signal;HPM_P1;HPM_P2
2023/05/14 00:01:50;;;;;;;;;43.00;36.33;;;;;;;;4973397;28;45493;-77
2023/05/14 00:04:16;;;;;;;;;41.67;36.00;;;;;;;;4964544;28;45443;-78
2023/05/14 00:06:42;;;;;;;;;44.33;39.00;;;;;;;;4969247;28;47288;-78
2023/05/14 00:09:07;;;;;;;;;43.67;38.33;;;;;;;;4966081;28;45750;-77
2023/05/14 00:11:32;;;;;;;;;48.67;38.00;;;;;;;;4969543;28;45724;-77
2023/05/14 00:13:57;;;;;;;;;45.33;39.33;;;;;;;;4972556;28;45390;-78
2023/05/14 00:16:23;;;;;;;;;44.33;37.00;;;;;;;;4973699;28;45462;-78
2023/05/14 00:18:48;;;;;;;;;48.67;39.00;;;;;;;;4973219;28;45375;-77
2023/05/14 00:21:13;;;;;;;;;50.67;41.67;;;;;;;;4969337;28;45721;-77
2023/05/14 00:23:38;;;;;;;;;50.00;38.00;;;;;;;;4969755;28;45896;-77
2023/05/14 00:26:04;;;;;;;;;50.67;40.67;;;;;;;;4972795;28;45761;-77
2023/05/14 00:28:29;;;;;;;;;45.67;40.00;;;;;;;;4971373;28;45997;-76
2023/05/14 00:30:55;;;;;;;;;51.50;37.00;;;;;;;;4968991;28;46367;-77
2023/05/14 00:33:21;;;;;;;;;53.00;43.00;;;;;;;;4967553;28;46476;-76
2023/05/14 00:35:46;;;;;;;;;49.67;39.33;;;;;;;;4972891;28;46312;-78
2023/05/14 00:38:15;;;;;;;;;52.33;41.67;;;;;;;;4973612;28;45379;-76
2023/05/14 00:40:44;;;;;;;;;48.00;38.33;;;;;;;;4975793;28;45623;-80
2023/05/14 00:43:09;;;;;;;;;49.33;38.67;;;;;;;;4973014;28;45732;-77
2023/05/14 00:45:35;;;;;;;;;47.33;38.33;;;;;;;;4970228;28;46202;-76
2023/05/14 00:48:00;;;;;;;;;46.00;39.33;;;;;;;;4972123;28;45701;-79
2023/05/14 00:50:26;;;;;;;;;45.00;37.33;;;;;;;;4970252;28;45551;-78
2023/05/14 00:52:51;;;;;;;;;50.33;41.67;;;;;;;;4964907;28;45703;-76
2023/05/14 00:55:17;;;;;;;;;45.00;37.50;;;;;;;;4967372;28;46132;-76
2023/05/14 00:57:43;;;;;;;;;48.67;39.67;;;;;;;;4967984;28;46036;-77
2023/05/14 01:00:08;;;;;;;;;48.00;38.00;;;;;;;;4969153;28;45609;-77
2023/05/14 01:02:34;;;;;;;;;51.00;40.33;;;;;;;;4967636;28;45582;-76
2023/05/14 01:05:00;;;;;;;;;49.00;39.67;;;;;;;;4963936;28;47288;-77
2023/05/14 01:07:25;;;;;;;;;50.75;40.50;;;;;;;;4962393;28;46460;-76
2023/05/14 01:10:07;;;;;;;;;44.75;37.75;;;;;;;;4969260;28;45862;-77
2023/05/14 01:12:35;;;;;;;;;45.67;38.33;;;;;;;;4971040;28;45587;-77
2023/05/14 01:15:11;;;;;;;;;45.00;37.00;;;;;;;;4964910;28;46517;-76
2023/05/14 01:18:00;;;;;;;;;50.33;39.00;;;;;;;;4969887;28;46009;-78
2023/05/14 01:20:28;;;;;;;;;48.33;38.67;;;;;;;;4958196;28;45716;-77
2023/05/14 01:22:56;;;;;;;;;51.33;40.67;;;;;;;;4962069;28;45679;-79
2023/05/14 01:25:22;;;;;;;;;50.00;39.67;;;;;;;;4971074;28;45927;-78
2023/05/14 01:28:06;;;;;;;;;52.75;44.00;;;;;;;;4974915;28;45915;-78
2023/05/14 01:30:46;;;;;;;;;50.00;41.00;;;;;;;;4971604;28;45538;-77
2023/05/14 01:33:16;;;;;;;;;51.67;42.33;;;;;;;;4970862;28;45642;-77
2023/05/14 01:35:43;;;;;;;;;52.25;40.00;;;;;;;;4968061;28;45889;-77
2023/05/14 01:38:10;;;;;;;;;51.67;42.33;;;;;;;;4970644;28;45816;-76
2023/05/14 01:40:36;;;;;;;;;51.33;41.00;;;;;;;;4970662;28;45903;-77
2023/05/14 01:43:02;;;;;;;;;56.00;45.33;;;;;;;;4971807;28;45603;-79
2023/05/14 01:45:27;;;;;;;;;57.50;46.25;;;;;;;;4972333;28;45487;-77
2023/05/14 01:47:52;;;;;;;;;53.33;42.00;;;;;;;;4972601;28;45547;-77
2023/05/14 01:50:18;;;;;;;;;49.67;41.00;;;;;;;;4972661;28;45379;-78
2023/05/14 01:52:43;;;;;;;;;61.67;45.33;;;;;;;;4972380;28;45813;-77
2023/05/14 01:55:09;;;;;;;;;57.00;44.67;;;;;;;;4985923;28;45714;-76
2023/05/14 01:57:34;;;;;;;;;46.00;36.75;;;;;;;;4979021;28;45532;-76
2023/05/14 01:59:59;;;;;;;;;54.00;42.67;;;;;;;;4959897;28;45663;-77
2023/05/14 02:02:27;;;;;;;;;45.33;36.00;;;;;;;;4972235;28;45625;-77
2023/05/14 02:04:52;;;;;;;;;52.67;43.00;;;;;;;;4965577;28;46106;-76
2023/05/14 02:07:18;;;;;;;;;49.67;39.33;;;;;;;;4969340;28;46136;-77
2023/05/14 02:09:43;;;;;;;;;58.00;44.67;;;;;;;;4972373;28;45851;-76
2023/05/14 02:12:08;;;;;;;;;52.00;39.00;;;;;;;;4976417;28;45400;-77
2023/05/14 02:14:33;;;;;;;;;49.67;40.33;;;;;;;;4973886;28;46175;-76
2023/05/14 02:16:59;;;;;;;;;54.25;42.25;;;;;;;;4971553;28;45776;-77
2023/05/14 02:19:24;;;;;;;;;48.33;40.67;;;;;;;;4970393;28;45547;-76
2023/05/14 02:21:49;;;;;;;;;37.67;32.00;;;;;;;;4971342;28;45649;-76
2023/05/14 02:24:15;;;;;;;;;55.00;42.67;;;;;;;;4971508;28;45805;-76
2023/05/14 02:26:41;;;;;;;;;49.25;38.50;;;;;;;;4979097;28;45410;-76
2023/05/14 02:29:06;;;;;;;;;51.75;40.00;;;;;;;;4959923;28;45432;-76
2023/05/14 02:31:31;;;;;;;;;51.00;41.50;;;;;;;;4962743;28;45780;-76
2023/05/14 02:33:56;;;;;;;;;56.00;42.00;;;;;;;;4975991;28;45328;-77
2023/05/14 02:36:21;;;;;;;;;53.75;41.50;;;;;;;;4976980;28;45803;-75
2023/05/14 02:38:47;;;;;;;;;58.25;44.00;;;;;;;;4972175;28;45593;-78
2023/05/14 02:41:12;;;;;;;;;53.75;43.25;;;;;;;;4969376;28;45619;-75
2023/05/14 02:43:38;;;;;;;;;53.75;41.50;;;;;;;;4965439;28;45769;-76
2023/05/14 02:46:03;;;;;;;;;50.75;40.00;;;;;;;;4964592;28;45811;-76
2023/05/14 02:48:28;;;;;;;;;45.67;35.67;;;;;;;;4972286;28;45629;-76
2023/05/14 02:50:53;;;;;;;;;51.75;41.50;;;;;;;;4971663;28;45438;-77
2023/05/14 02:53:19;;;;;;;;;50.00;40.50;;;;;;;;4971382;28;45429;-76
2023/05/14 02:55:44;;;;;;;;;49.50;38.50;;;;;;;;4971405;28;45360;-76
2023/05/14 02:58:09;;;;;;;;;55.67;43.00;;;;;;;;4972091;28;45393;-76
2023/05/14 03:00:35;;;;;;;;;47.50;38.75;;;;;;;;4978815;28;45527;-76
2023/05/14 03:03:00;;;;;;;;;50.00;39.67;;;;;;;;4972118;28;46018;-77
2023/05/14 03:05:26;;;;;;;;;51.75;43.25;;;;;;;;4971623;28;45797;-75
2023/05/14 03:07:52;;;;;;;;;52.25;41.25;;;;;;;;4972080;28;45848;-75
2023/05/14 03:10:17;;;;;;;;;51.33;40.00;;;;;;;;4975514;28;45496;-77
2023/05/14 03:12:43;;;;;;;;;49.33;39.00;;;;;;;;4972927;28;45952;-77
2023/05/14 03:15:08;;;;;;;;;50.25;39.00;;;;;;;;4971553;28;45732;-78
2023/05/14 03:17:34;;;;;;;;;50.50;39.00;;;;;;;;4970075;28;45412;-75
2023/05/14 03:19:59;;;;;;;;;50.00;39.75;;;;;;;;4963864;28;45660;-77
2023/05/14 03:22:24;;;;;;;;;54.67;41.00;;;;;;;;4969338;28;46246;-76
2023/05/14 03:24:50;;;;;;;;;48.67;38.33;;;;;;;;4975171;28;45405;-76
2023/05/14 03:27:15;;;;;;;;;49.00;38.67;;;;;;;;4975506;28;45834;-75
2023/05/14 03:29:40;;;;;;;;;47.33;38.00;;;;;;;;4971061;28;45727;-75
2023/05/14 03:32:06;;;;;;;;;49.33;39.67;;;;;;;;4972257;28;45886;-76
2023/05/14 03:34:31;;;;;;;;;45.75;38.25;;;;;;;;4972834;28;45348;-75
2023/05/14 03:36:56;;;;;;;;;55.33;41.00;;;;;;;;4974501;28;45701;-76
2023/05/14 03:39:22;;;;;;;;;51.50;40.50;;;;;;;;4973902;28;45677;-75
2023/05/14 03:41:47;;;;;;;;;48.75;39.75;;;;;;;;4972093;28;46054;-73
2023/05/14 03:44:12;;;;;;;;;49.67;34.67;;;;;;;;4969085;28;45428;-72
2023/05/14 03:46:38;;;;;;;;;51.67;40.33;;;;;;;;4961144;28;45694;-72
2023/05/14 03:49:03;;;;;;;;;50.33;40.00;;;;;;;;4966675;28;46093;-73
2023/05/14 03:51:28;;;;;;;;;53.00;40.00;;;;;;;;4964295;28;45698;-74
2023/05/14 03:53:54;;;;;;;;;43.67;35.00;;;;;;;;4967498;28;45808;-77
2023/05/14 03:56:19;;;;;;;;;49.33;39.00;;;;;;;;4970899;28;45511;-73
2023/05/14 03:58:44;;;;;;;;;48.33;39.33;;;;;;;;4970425;28;45486;-73
2023/05/14 04:01:10;;;;;;;;;49.00;39.33;;;;;;;;4979641;28;45608;-72
2023/05/14 04:03:35;;;;;;;;;48.33;38.00;;;;;;;;4968955;28;46018;-74
2023/05/14 04:06:01;;;;;;;;;47.33;39.00;;;;;;;;4977918;28;45813;-75
2023/05/14 04:08:31;;;;;;;;;48.00;39.00;;;;;;;;4967797;28;46541;-77
2023/05/14 04:11:00;;;;;;;;;49.67;40.67;;;;;;;;4964890;28;46153;-79
2023/05/14 04:13:25;;;;;;;;;47.67;38.67;;;;;;;;4964695;28;45967;-76
2023/05/14 04:15:50;;;;;;;;;49.00;39.67;;;;;;;;4970721;28;45885;-78
2023/05/14 04:18:16;;;;;;;;;42.67;34.00;;;;;;;;4973241;28;45500;-76
2023/05/14 04:20:41;;;;;;;;;48.00;39.00;;;;;;;;4969415;28;47831;-78
2023/05/14 04:23:06;;;;;;;;;47.75;38.00;;;;;;;;4973430;28;45786;-77
2023/05/14 04:25:31;;;;;;;;;45.00;37.00;;;;;;;;4977181;28;45582;-79
2023/05/14 04:27:57;;;;;;;;;51.67;40.00;;;;;;;;4977655;28;45467;-77
2023/05/14 04:30:22;;;;;;;;;50.67;39.67;;;;;;;;4971307;28;46090;-78
2023/05/14 04:32:48;;;;;;;;;49.00;39.00;;;;;;;;4972873;28;45896;-76
2023/05/14 04:35:13;;;;;;;;;49.00;38.00;;;;;;;;4969232;28;45799;-77
2023/05/14 04:37:39;;;;;;;;;49.00;39.67;;;;;;;;4967163;28;45764;-77
2023/05/14 04:40:05;;;;;;;;;52.33;41.00;;;;;;;;4973767;28;45758;-77
2023/05/14 04:42:30;;;;;;;;;49.00;40.67;;;;;;;;4973836;28;45434;-78
2023/05/14 04:44:56;;;;;;;;;49.33;38.67;;;;;;;;4972414;28;45921;-78
2023/05/14 04:47:25;;;;;;;;;53.00;40.67;;;;;;;;4973875;28;45433;-76
2023/05/14 04:49:50;;;;;;;;;46.00;38.33;;;;;;;;4978942;28;45862;-78
2023/05/14 04:52:16;;;;;;;;;52.33;40.33;;;;;;;;4975431;28;45545;-78
2023/05/14 04:54:41;;;;;;;;;49.67;40.00;;;;;;;;4975483;28;45960;-79
2023/05/14 04:57:06;;;;;;;;;49.33;38.00;;;;;;;;4973509;28;45976;-77
2023/05/14 04:59:32;;;;;;;;;53.00;40.33;;;;;;;;4976296;28;45903;-78
2023/05/14 05:01:57;;;;;;;;;52.67;39.33;;;;;;;;4986216;28;45935;-77
2023/05/14 05:04:22;;;;;;;;;49.33;36.00;;;;;;;;4970453;28;45845;-77
2023/05/14 05:06:49;;;;;;;;;47.00;38.50;;;;;;;;4971689;28;45495;-77
2023/05/14 05:09:15;;;;;;;;;52.00;39.33;;;;;;;;4973508;28;46813;-77
2023/05/14 05:11:40;;;;;;;;;51.00;39.33;;;;;;;;4971967;28;45827;-77
2023/05/14 05:14:05;;;;;;;;;49.00;39.75;;;;;;;;4983752;28;45380;-78
2023/05/14 05:16:30;;;;;;;;;48.50;39.25;;;;;;;;4976713;28;45370;-77
2023/05/14 05:18:55;;;;;;;;;52.50;40.00;;;;;;;;4962942;28;46213;-77
2023/05/14 05:21:21;;;;;;;;;51.33;41.00;;;;;;;;4975565;28;45768;-79
2023/05/14 05:23:46;;;;;;;;;54.00;43.00;;;;;;;;4973673;28;45533;-78
2023/05/14 05:26:11;;;;;;;;;53.33;41.33;;;;;;;;4971825;28;45733;-76
2023/05/14 05:28:36;;;;;;;;;55.75;44.00;;;;;;;;4972824;28;46623;-77
2023/05/14 05:31:02;;;;;;;;;56.00;43.25;;;;;;;;4963213;28;45797;-78
2023/05/14 05:33:27;;;;;;;;;52.50;41.50;;;;;;;;4970002;28;45894;-78
2023/05/14 05:35:53;;;;;;;;;51.75;41.00;;;;;;;;4971104;28;45892;-77
2023/05/14 05:38:18;;;;;;;;;53.00;40.00;;;;;;;;4970630;28;45978;-77
2023/05/14 05:40:43;;;;;;;;;52.00;40.00;;;;;;;;4972702;28;45873;-78
2023/05/14 05:43:08;;;;;;;;;51.33;39.67;;;;;;;;4973661;28;45515;-75
2023/05/14 05:45:33;;;;;;;;;50.00;39.67;;;;;;;;4972682;28;45457;-76
2023/05/14 05:47:59;;;;;;;;;50.75;41.25;;;;;;;;4978872;28;45977;-73
2023/05/14 05:50:25;;;;;;;;;56.00;45.67;;;;;;;;4968994;28;45396;-74
2023/05/14 05:52:50;;;;;;;;;56.50;43.75;;;;;;;;4970397;28;45963;-72
2023/05/14 05:55:16;;;;;;;;;48.00;37.75;;;;;;;;4971225;28;45533;-73
2023/05/14 05:57:41;;;;;;;;;55.50;40.75;;;;;;;;4959961;28;45749;-75
2023/05/14 06:00:11;;;;;;;;;52.00;41.00;;;;;;;;4978841;28;45808;-73
2023/05/14 06:02:37;;;;;;;;;55.50;42.50;;;;;;;;4968074;28;45849;-74
2023/05/14 06:05:02;;;;;;;;;60.67;44.33;;;;;;;;4965703;28;45892;-75
2023/05/14 06:07:27;;;;;;;;;58.00;44.50;;;;;;;;4970040;28;45957;-74
2023/05/14 06:09:52;;;;;;;;;74.75;63.75;;;;;;;;4970511;28;45857;-74
2023/05/14 06:12:18;;;;;;;;;51.75;41.25;;;;;;;;4965466;28;45814;-75
2023/05/14 06:14:43;;;;;;;;;60.00;39.67;;;;;;;;4967296;28;45950;-74
2023/05/14 06:17:08;;;;;;;;;55.50;42.50;;;;;;;;4969904;28;46012;-77
2023/05/14 06:19:33;;;;;;;;;52.67;40.00;;;;;;;;4975655;28;45951;-77
2023/05/14 06:21:58;;;;;;;;;64.50;51.50;;;;;;;;4963691;28;45670;-75
2023/05/14 06:24:24;;;;;;;;;68.75;54.50;;;;;;;;4957304;28;45549;-77
2023/05/14 06:26:49;;;;;;;;;63.50;48.25;;;;;;;;4943043;28;46934;-76
2023/05/14 06:29:18;;;;;;;;;52.67;41.00;;;;;;;;4945402;28;45887;-76
2023/05/14 06:31:43;;;;;;;;;61.67;48.33;;;;;;;;4944489;28;45374;-77
2023/05/14 06:34:09;;;;;;;;;51.00;40.00;;;;;;;;4963112;28;46086;-77
2023/05/14 06:36:34;;;;;;;;;59.00;45.33;;;;;;;;4956425;28;45933;-77
2023/05/14 06:38:59;;;;;;;;;58.25;43.00;;;;;;;;4950660;28;45355;-78
2023/05/14 06:41:25;;;;;;;;;68.25;51.25;;;;;;;;4942561;28;45504;-76
2023/05/14 06:43:50;;;;;;;;;66.50;51.25;;;;;;;;4944444;28;45564;-77
2023/05/14 06:46:15;;;;;;;;;76.50;58.25;;;;;;;;4949777;28;45702;-76
2023/05/14 06:48:40;;;;;;;;;62.75;47.25;;;;;;;;4944104;28;45862;-76
2023/05/14 06:51:06;;;;;;;;;71.75;55.75;;;;;;;;4951940;28;45657;-75
2023/05/14 06:53:31;;;;;;;;;64.50;48.75;;;;;;;;4945929;28;45748;-78
2023/05/14 06:55:56;;;;;;;;;69.25;52.00;;;;;;;;4944294;28;46015;-77
2023/05/14 06:58:24;;;;;;;;;74.25;57.00;;;;;;;;4945202;28;45822;-77
2023/05/14 07:00:49;;;;;;;;;64.75;51.00;;;;;;;;4950122;28;45918;-76
2023/05/14 07:03:14;;;;;;;;;65.50;48.75;;;;;;;;4943841;28;46168;-76
2023/05/14 07:05:40;;;;;;;;;68.67;52.00;;;;;;;;4942566;28;46374;-76
2023/05/14 07:08:05;;;;;;;;;57.00;44.00;;;;;;;;4949925;28;45637;-77
2023/05/14 07:10:31;;;;;;;;;59.00;46.67;;;;;;;;4950155;28;45709;-78
2023/05/14 07:12:57;;;;;;;;;59.67;47.67;;;;;;;;4948237;28;45863;-76
2023/05/14 07:15:22;;;;;;;;;59.33;44.67;;;;;;;;4946014;28;47482;-77
2023/05/14 07:17:47;;;;;;;;;54.33;42.67;;;;;;;;4949070;28;45854;-79
2023/05/14 07:20:13;;;;;;;;;53.67;44.00;;;;;;;;4946561;28;45409;-76
2023/05/14 07:22:38;;;;;;;;;57.67;44.00;;;;;;;;4949481;28;45732;-77
2023/05/14 07:25:03;;;;;;;;;59.67;45.33;;;;;;;;4950318;28;45709;-78
2023/05/14 07:27:29;;;;;;;;;60.00;47.33;;;;;;;;4948163;28;45434;-79
2023/05/14 07:29:54;;;;;;;;;47.67;38.67;;;;;;;;4950478;28;45525;-78
2023/05/14 07:32:19;;;;;;;;;55.00;44.33;;;;;;;;4949256;28;45818;-78
2023/05/14 07:34:45;;;;;;;;;53.67;40.67;;;;;;;;4950392;28;46050;-79
2023/05/14 07:37:13;;;;;;;;;54.67;40.67;;;;;;;;4949092;28;45404;-83
2023/05/14 07:39:40;;;;;;;;;57.00;41.00;;;;;;;;4953574;28;45858;-79
2023/05/14 07:42:05;;;;;;;;;58.33;45.00;;;;;;;;4951203;28;45877;-77
2023/05/14 07:44:30;;;;;;;;;46.67;37.33;;;;;;;;4952774;28;45689;-78
2023/05/14 07:46:56;;;;;;;;;57.00;43.33;;;;;;;;4942613;28;45474;-75
2023/05/14 07:49:21;;;;;;;;;51.67;41.00;;;;;;;;4948208;28;46350;-75
2023/05/14 07:51:46;;;;;;;;;53.00;43.67;;;;;;;;4942720;28;46257;-78
2023/05/14 07:54:12;;;;;;;;;49.33;38.67;;;;;;;;4949393;28;45926;-78
2023/05/14 07:56:37;;;;;;;;;46.33;39.00;;;;;;;;4949960;28;45629;-76
2023/05/14 07:59:02;;;;;;;;;46.00;37.33;;;;;;;;4949716;28;45921;-77
2023/05/14 08:01:27;;;;;;;;;48.00;36.33;;;;;;;;4947109;28;45951;-78
2023/05/14 08:03:53;;;;;;;;;57.33;40.67;;;;;;;;4941956;28;48082;-78
2023/05/14 08:06:19;;;;;;;;;50.33;38.67;;;;;;;;4937197;28;45802;-78
2023/05/14 08:08:45;;;;;;;;;50.00;38.67;;;;;;;;4946956;28;45494;-80
2023/05/14 08:11:10;;;;;;;;;58.33;45.67;;;;;;;;4945548;28;46472;-78
2023/05/14 08:13:36;;;;;;;;;59.00;45.67;;;;;;;;4951899;28;45510;-76
2023/05/14 08:16:01;;;;;;;;;50.00;40.67;;;;;;;;4952904;28;46192;-82
2023/05/14 08:18:26;;;;;;;;;51.67;40.00;;;;;;;;4951563;28;46032;-77
2023/05/14 08:20:52;;;;;;;;;60.00;47.33;;;;;;;;4952977;28;45570;-80
2023/05/14 08:23:17;;;;;;;;;51.00;38.67;;;;;;;;4951829;28;45677;-76
2023/05/14 08:25:42;;;;;;;;;44.33;36.33;;;;;;;;4954360;28;45964;-77
2023/05/14 08:28:07;;;;;;;;;54.00;39.00;;;;;;;;4951832;28;45758;-76
2023/05/14 08:30:33;;;;;;;;;43.67;36.67;;;;;;;;4950435;28;46212;-79
2023/05/14 08:32:58;;;;;;;;;45.33;39.33;;;;;;;;4953287;28;45883;-78
2023/05/14 08:35:24;;;;;;;;;57.67;41.00;;;;;;;;4950708;28;46210;-76
2023/05/14 08:37:50;;;;;;;;;53.00;38.67;;;;;;;;4950350;28;45816;-76
2023/05/14 08:40:15;;;;;;;;;51.00;40.33;;;;;;;;4952720;28;45770;-77
2023/05/14 08:42:42;;;;;;;;;49.33;39.00;;;;;;;;4951090;28;45623;-76
2023/05/14 08:45:17;;;;;;;;;48.33;38.33;;;;;;;;4957238;28;46052;-77
2023/05/14 08:47:46;;;;;;;;;44.33;38.67;;;;;;;;4951703;28;45827;-77
2023/05/14 08:50:11;;;;;;;;;55.33;41.67;;;;;;;;4968725;28;45671;-78
2023/05/14 08:52:36;;;;;;;;;48.67;33.33;;;;;;;;4953496;28;46236;-77
2023/05/14 08:55:03;;;;;;;;;47.00;35.00;;;;;;;;4954070;28;46021;-76
2023/05/14 08:57:29;;;;;;;;;48.33;36.67;;;;;;;;4945322;28;46047;-77
2023/05/14 08:59:56;;;;;;;;;37.67;34.33;;;;;;;;4947546;28;45935;-74
2023/05/14 09:02:23;;;;;;;;;40.00;34.33;;;;;;;;4953861;28;45648;-77
2023/05/14 09:04:53;;;;;;;;;49.67;39.67;;;;;;;;4942204;28;45839;-76
2023/05/14 09:07:19;;;;;;;;;45.33;36.00;;;;;;;;4948263;28;45886;-76
2023/05/14 09:09:45;;;;;;;;;44.00;34.33;;;;;;;;4950157;28;45970;-76
2023/05/14 09:12:11;;;;;;;;;44.00;34.67;;;;;;;;4939540;28;46261;-76
2023/05/14 09:14:36;;;;;;;;;42.00;33.67;;;;;;;;4932981;28;46016;-75
2023/05/14 09:17:02;;;;;;;;;45.67;37.67;;;;;;;;4943808;28;45732;-78
2023/05/14 09:19:27;;;;;;;;;49.67;37.67;;;;;;;;4952871;28;45917;-77
2023/05/14 09:21:55;;;;;;;;;52.00;38.33;;;;;;;;4950754;28;45983;-75
2023/05/14 09:24:24;;;;;;;;;50.67;39.00;;;;;;;;4954890;28;45761;-76
2023/05/14 09:26:53;;;;;;;;;43.00;34.00;;;;;;;;4951508;28;45814;-75
2023/05/14 09:29:19;;;;;;;;;41.67;36.00;;;;;;;;4953199;28;45576;-76
2023/05/14 09:31:44;;;;;;;;;38.00;33.00;;;;;;;;4948987;28;47901;-77
2023/05/14 09:34:10;;;;;;;;;43.67;33.67;;;;;;;;4949570;28;45691;-77
2023/05/14 09:36:35;;;;;;;;;47.33;35.33;;;;;;;;4951541;28;45682;-76
2023/05/14 09:39:03;;;;;;;;;49.67;35.33;;;;;;;;4950095;28;45765;-76
2023/05/14 09:41:31;;;;;;;;;47.67;38.00;;;;;;;;4950762;28;45774;-77
2023/05/14 09:43:56;;;;;;;;;51.00;37.00;;;;;;;;4947365;28;45696;-78
2023/05/14 09:46:22;;;;;;;;;40.67;35.67;;;;;;;;4954249;28;46062;-75
2023/05/14 09:48:47;;;;;;;;;37.00;33.33;;;;;;;;4950685;28;45761;-77
2023/05/14 09:51:13;;;;;;;;;41.67;33.00;;;;;;;;4954931;28;45867;-76
2023/05/14 09:53:40;;;;;;;;;38.33;31.33;;;;;;;;4947219;28;45956;-79
2023/05/14 09:56:05;;;;;;;;;37.67;33.67;;;;;;;;4952683;28;45846;-77
2023/05/14 09:58:30;;;;;;;;;42.67;34.67;;;;;;;;4949744;28;45802;-77
2023/05/14 10:00:56;;;;;;;;;40.33;34.00;;;;;;;;4948023;28;46000;-79
2023/05/14 10:03:24;;;;;;;;;37.67;32.67;;;;;;;;4947812;28;45730;-78
2023/05/14 10:05:50;;;;;;;;;45.00;36.00;;;;;;;;4949277;28;46205;-77
2023/05/14 10:08:18;;;;;;;;;46.33;35.00;;;;;;;;4954947;28;45984;-76
2023/05/14 10:10:43;;;;;;;;;47.33;38.67;;;;;;;;4946352;28;47310;-77
2023/05/14 10:13:20;;;;;;;;;40.67;36.67;;;;;;;;4948535;28;45763;-77
2023/05/14 10:15:56;;;;;;;;;40.00;35.00;;;;;;;;4944694;28;45777;-76
2023/05/14 10:18:22;;;;;;;;;35.33;32.67;;;;;;;;4951304;28;45718;-77
2023/05/14 10:20:52;;;;;;;;;41.00;36.00;;;;;;;;4952245;28;47149;-77
2023/05/14 10:23:17;;;;;;;;;38.67;34.33;;;;;;;;4952733;28;45789;-76
2023/05/14 10:25:43;;;;;;;;;41.67;35.33;;;;;;;;4951183;28;45611;-77
2023/05/14 10:28:08;;;;;;;;;35.00;31.67;;;;;;;;4947759;28;45559;-77
2023/05/14 10:30:34;;;;;;;;;62.67;47.33;;;;;;;;4946154;28;46315;-75
2023/05/14 10:33:06;;;;;;;;;40.33;35.00;;;;;;;;4948290;28;45842;-75
2023/05/14 10:35:49;;;;;;;;;36.67;31.67;;;;;;;;4945291;28;45388;-77
2023/05/14 10:38:21;;;;;;;;;37.00;33.33;;;;;;;;4950182;28;45408;-78
2023/05/14 10:40:49;;;;;;;;;34.67;28.33;;;;;;;;4949800;28;45537;-79
2023/05/14 10:43:14;;;;;;;;;34.00;29.67;;;;;;;;4953170;28;44932;-77
2023/05/14 10:45:45;;;;;;;;;45.33;35.00;;;;;;;;4954685;28;45797;-79
2023/05/14 10:48:10;;;;;;;;;44.00;34.33;;;;;;;;4955734;28;45492;-77
2023/05/14 10:50:36;;;;;;;;;34.00;27.33;;;;;;;;4956548;28;45504;-78
2023/05/14 10:53:01;;;;;;;;;33.33;29.67;;;;;;;;4963147;28;45926;-79
2023/05/14 10:55:26;;;;;;;;;37.67;30.33;;;;;;;;4955608;28;45673;-80
2023/05/14 10:57:52;;;;;;;;;35.00;30.67;;;;;;;;4950738;28;45361;-79
2023/05/14 11:00:17;;;;;;;;;34.33;29.33;;;;;;;;4951898;28;45357;-79
2023/05/14 11:02:43;;;;;;;;;44.67;36.33;;;;;;;;4951827;28;45865;-78
2023/05/14 11:05:14;;;;;;;;;39.33;34.33;;;;;;;;4950762;28;45513;-79
2023/05/14 11:07:42;;;;;;;;;37.33;29.67;;;;;;;;4946353;28;45432;-77
2023/05/14 11:10:07;;;;;;;;;33.00;26.33;;;;;;;;4955917;28;45405;-80
2023/05/14 11:12:33;;;;;;;;;29.00;25.00;;;;;;;;4952694;28;45575;-79
2023/05/14 11:15:00;;;;;;;;;32.67;30.00;;;;;;;;4937818;28;46108;-80
2023/05/14 11:17:26;;;;;;;;;38.67;33.00;;;;;;;;4940031;28;45519;-81
2023/05/14 11:19:51;;;;;;;;;40.33;33.67;;;;;;;;4954415;28;45850;-78
2023/05/14 11:22:17;;;;;;;;;35.00;30.33;;;;;;;;4945466;28;45807;-78
2023/05/14 11:24:42;;;;;;;;;35.00;29.33;;;;;;;;4950526;28;45833;-78
2023/05/14 11:27:10;;;;;;;;;43.67;32.67;;;;;;;;4947344;28;45629;-78
2023/05/14 11:29:36;;;;;;;;;34.67;30.00;;;;;;;;4947816;28;45547;-77
2023/05/14 11:32:04;;;;;;;;;39.00;32.67;;;;;;;;4948855;28;45908;-77
2023/05/14 11:34:30;;;;;;;;;31.00;29.00;;;;;;;;4942916;28;45959;-77
2023/05/14 11:36:55;;;;;;;;;33.33;29.33;;;;;;;;4941733;28;45509;-79
2023/05/14 11:39:20;;;;;;;;;35.33;27.00;;;;;;;;4947454;28;46954;-78
2023/05/14 11:41:45;;;;;;;;;32.00;31.00;;;;;;;;4952389;28;45755;-76
2023/05/14 11:44:11;;;;;;;;;31.33;27.33;;;;;;;;4947778;28;45760;-79
2023/05/14 11:46:36;;;;;;;;;27.00;26.67;;;;;;;;4952258;28;45532;-78
2023/05/14 11:49:05;;;;;;;;;30.33;29.67;;;;;;;;4954999;28;46092;-80
2023/05/14 11:51:30;;;;;;;;;27.33;27.00;;;;;;;;4960495;28;45780;-78
2023/05/14 11:53:57;;;;;;;;;34.00;30.67;;;;;;;;4953158;28;45736;-78
2023/05/14 11:56:22;;;;;;;;;30.00;24.00;;;;;;;;4961008;28;45771;-78
2023/05/14 11:58:49;;;;;;;;;30.33;25.67;;;;;;;;4952782;28;45817;-79
2023/05/14 12:01:21;;;;;;;;;33.67;31.00;;;;;;;;4957796;28;45964;-86
2023/05/14 12:03:46;;;;;;;;;38.00;33.00;;;;;;;;4948971;28;45727;-79
2023/05/14 12:06:12;;;;;;;;;34.33;26.67;;;;;;;;4949617;28;45499;-82
2023/05/14 12:08:37;;;;;;;;;34.33;31.00;;;;;;;;4949172;28;45862;-76
2023/05/14 12:11:05;;;;;;;;;36.00;33.67;;;;;;;;4953604;28;45874;-84
2023/05/14 12:13:31;;;;;;;;;33.00;29.00;;;;;;;;4951746;28;45850;-78
2023/05/14 12:16:04;;;;;;;;;46.67;33.67;;;;;;;;4943083;28;45779;-78
2023/05/14 12:18:30;;;;;;;;;31.00;30.00;;;;;;;;4952829;28;45541;-78
2023/05/14 12:20:55;;;;;;;;;38.33;31.33;;;;;;;;4944664;28;45921;-76
2023/05/14 12:23:27;;;;;;;;;33.67;31.33;;;;;;;;4942102;28;45733;-82
2023/05/14 12:25:52;;;;;;;;;28.33;27.33;;;;;;;;4949396;28;45598;-78
2023/05/14 12:28:21;;;;;;;;;31.33;29.33;;;;;;;;4953234;28;46747;-83
2023/05/14 12:30:48;;;;;;;;;38.00;32.33;;;;;;;;4950190;28;45433;-77
2023/05/14 12:33:13;;;;;;;;;39.67;34.00;;;;;;;;4953459;28;45607;-78
2023/05/14 12:35:39;;;;;;;;;30.67;27.33;;;;;;;;4958328;28;45671;-78
2023/05/14 12:38:05;;;;;;;;;34.00;32.33;;;;;;;;4944703;28;46832;-78
2023/05/14 12:40:30;;;;;;;;;30.00;30.00;;;;;;;;4944283;28;45774;-77
2023/05/14 12:42:55;;;;;;;;;32.33;29.00;;;;;;;;4951217;28;45867;-77
2023/05/14 12:45:20;;;;;;;;;38.67;32.67;;;;;;;;4947623;28;45928;-78
2023/05/14 12:47:46;;;;;;;;;36.00;30.67;;;;;;;;4947091;28;45951;-78
2023/05/14 12:50:11;;;;;;;;;34.33;27.67;;;;;;;;4951534;28;45665;-78
2023/05/14 12:52:36;;;;;;;;;34.00;27.67;;;;;;;;4952583;28;45534;-78
2023/05/14 12:55:02;;;;;;;;;35.33;33.00;;;;;;;;4953329;28;45928;-76
2023/05/14 12:57:28;;;;;;;;;33.67;30.33;;;;;;;;4955183;28;46371;-76
2023/05/14 12:59:54;;;;;;;;;33.33;28.33;;;;;;;;4944378;28;45813;-75
2023/05/14 13:02:19;;;;;;;;;31.00;29.33;;;;;;;;4953196;28;45988;-79
2023/05/14 13:04:44;;;;;;;;;34.33;32.00;;;;;;;;4958592;28;45870;-79
2023/05/14 13:07:10;;;;;;;;;33.67;29.67;;;;;;;;4945669;28;45572;-79
2023/05/14 13:09:35;;;;;;;;;29.00;27.00;;;;;;;;4945884;28;45435;-77
2023/05/14 13:12:00;;;;;;;;;31.67;30.00;;;;;;;;4953318;28;45588;-80
2023/05/14 13:14:25;;;;;;;;;26.67;24.33;;;;;;;;4954098;28;45420;-79
2023/05/14 13:16:51;;;;;;;;;30.33;27.33;;;;;;;;4951585;28;45609;-80
2023/05/14 13:19:16;;;;;;;;;27.67;23.67;;;;;;;;4952774;28;46049;-79
2023/05/14 13:21:41;;;;;;;;;31.00;30.00;;;;;;;;4952791;28;46374;-77
2023/05/14 13:24:08;;;;;;;;;29.33;27.33;;;;;;;;4945846;28;45777;-77
2023/05/14 13:26:34;;;;;;;;;33.00;29.00;;;;;;;;4953998;28;46092;-77
2023/05/14 13:29:00;;;;;;;;;36.67;32.00;;;;;;;;4952058;28;45535;-80
2023/05/14 13:31:25;;;;;;;;;24.67;24.67;;;;;;;;4951028;28;45767;-79
2023/05/14 13:33:51;;;;;;;;;38.00;31.33;;;;;;;;4952853;28;45830;-76
2023/05/14 13:36:16;;;;;;;;;28.67;25.67;;;;;;;;4952350;28;45534;-78
2023/05/14 13:38:45;;;;;;;;;38.00;28.67;;;;;;;;4948508;28;45993;-79
2023/05/14 13:41:10;;;;;;;;;28.67;25.00;;;;;;;;4952804;28;45661;-76
2023/05/14 13:43:35;;;;;;;;;32.00;29.33;;;;;;;;4961516;28;45480;-78
2023/05/14 13:46:02;;;;;;;;;24.00;24.00;;;;;;;;4955822;28;46605;-78
2023/05/14 13:48:27;;;;;;;;;22.00;22.00;;;;;;;;4954686;28;45806;-77
2023/05/14 13:50:52;;;;;;;;;25.33;22.67;;;;;;;;4951470;28;45788;-79
2023/05/14 13:53:18;;;;;;;;;27.00;24.33;;;;;;;;4950369;28;45554;-77
2023/05/14 13:55:44;;;;;;;;;28.00;25.00;;;;;;;;4951176;28;46336;-79
2023/05/14 13:58:09;;;;;;;;;25.33;20.33;;;;;;;;4949200;28;45809;-77
2023/05/14 14:00:34;;;;;;;;;25.00;23.33;;;;;;;;4950461;28;46043;-80
2023/05/14 14:03:00;;;;;;;;;25.00;23.00;;;;;;;;4948368;28;45440;-78
2023/05/14 14:05:27;;;;;;;;;29.00;27.33;;;;;;;;4950251;28;46782;-78
2023/05/14 14:07:52;;;;;;;;;23.33;22.33;;;;;;;;4941245;28;45943;-79
2023/05/14 14:10:18;;;;;;;;;25.33;22.67;;;;;;;;4939789;28;45850;-77